Time;durP1;ratioP1;P1;durP2;ratioP2;P2;SDS_P1;SDS_P2;PMS_P1;PMS_P2;Temp;Humidity;BMP_temperature;BMP_pressure;BME280_temperature;BME280_humidity;BME280_pressure;Samples;Min_cycle;Max_cycle;Signal;HPM_P1;HPM_P2
2023/04/10 00:00:59;;;;;;;29.75;13.38;;;;;;;5.55;59.49;100481.53;4500712;31;20468;-89
2023/04/10 00:03:24;;;;;;;30.42;14.90;;;;;;;5.45;59.48;100479.81;4474508;31;20463;-88
2023/04/10 00:05:50;;;;;;;36.88;17.17;;;;;;;5.67;59.49;100480.66;4487947;31;20165;-89
2023/04/10 00:08:15;;;;;;;33.80;15.02;;;;;;;5.67;59.49;100473.75;4488028;31;20104;-88
2023/04/10 00:10:41;;;;;;;30.70;15.45;;;;;;;5.73;59.50;100471.19;4475223;31;20115;-88
2023/04/10 00:13:06;;;;;;;29.45;14.95;;;;;;;5.61;59.49;100475.50;4501000;31;30728;-88
2023/04/10 00:15:31;;;;;;;29.52;14.23;;;;;;;5.76;59.51;100468.59;4501730;31;20104;-89
2023/04/10 00:17:57;;;;;;;31.62;15.25;;;;;;;5.68;59.50;100462.59;4500361;31;20112;-89
2023/04/10 00:20:25;;;;;;;27.92;15.05;;;;;;;5.74;59.50;100462.59;4501412;31;20432;-89
2023/04/10 00:22:50;;;;;;;29.90;14.85;;;;;;;5.82;59.50;100457.41;4500409;31;20076;-89
2023/04/10 00:25:16;;;;;;;31.55;14.25;;;;;;;5.90;59.52;100450.50;4486804;31;20157;-89
2023/04/10 00:27:41;;;;;;;26.02;13.15;;;;;;;5.80;59.50;100457.41;4487167;31;20101;-88
2023/04/10 00:30:07;;;;;;;25.25;13.80;;;;;;;5.79;59.50;100452.25;4486928;31;20135;-88
2023/04/10 00:32:32;;;;;;;25.83;12.80;;;;;;;5.75;59.50;100453.97;4502044;31;20088;-89
2023/04/10 00:34:58;;;;;;;23.58;13.98;;;;;;;5.84;59.51;100448.78;4488252;31;22339;-89
2023/04/10 00:37:23;;;;;;;31.00;14.95;;;;;;;5.81;59.50;100450.50;4475688;31;20160;-89
2023/04/10 00:39:49;;;;;;;31.70;15.55;;;;;;;5.79;59.50;100449.66;4488659;31;20138;-88
2023/04/10 00:42:15;;;;;;;26.67;14.05;;;;;;;5.78;59.51;100448.78;4503293;31;20440;-88
2023/04/10 00:44:40;;;;;;;28.60;15.13;;;;;;;5.80;59.50;100449.66;4488920;31;20182;-89
2023/04/10 00:47:06;;;;;;;26.73;14.20;;;;;;;5.69;59.50;100450.53;4502014;31;20420;-89
2023/04/10 00:49:31;;;;;;;33.47;15.35;;;;;;;5.62;59.49;100456.56;4488767;31;20118;-89
2023/04/10 00:51:57;;;;;;;34.65;15.68;;;;;;;5.94;59.51;100443.66;4488635;31;20124;-89
2023/04/10 00:54:22;;;;;;;24.95;13.43;;;;;;;5.71;59.50;100449.69;4475478;31;20095;-89
2023/04/10 00:56:48;;;;;;;28.65;14.55;;;;;;;5.60;59.49;100450.53;4488499;31;20131;-88
2023/04/10 00:59:14;;;;;;;31.30;15.60;;;;;;;5.61;59.49;100445.34;4488919;31;20417;-89
2023/04/10 01:01:39;;;;;;;31.37;15.10;;;;;;;5.60;59.48;100453.13;4488839;31;20104;-88
2023/04/10 01:04:05;;;;;;;28.90;14.15;;;;;;;5.69;59.50;100448.81;4488461;31;20099;-88
2023/04/10 01:06:48;;;;;;;35.50;15.82;;;;;;;5.75;59.49;100441.06;4488733;31;20104;-88
2023/04/10 01:09:32;;;;;;;26.65;13.38;;;;;;;5.76;59.49;100441.91;4503008;31;20080;-88
2023/04/10 01:12:07;;;;;;;30.15;14.00;;;;;;;5.74;59.50;100434.16;4501994;31;20098;-88
2023/04/10 01:14:37;;;;;;;29.87;13.18;;;;;;;5.84;59.51;100438.44;4501723;31;20121;-88
2023/04/10 01:17:32;;;;;;;;;;;;;;;5.92;59.51;100429.87;4488976;31;20456;-88
2023/04/10 01:20:11;;;;;;;23.45;11.32;;;;;;;6.02;59.51;100432.41;4446134;31;20003;-89
2023/04/10 01:22:56;;;;;;;;;;;;;;;5.95;59.51;100430.72;4489843;31;20148;-88
2023/04/10 01:25:42;;;;;;;23.75;12.82;;;;;;;5.97;59.51;100433.28;4503692;31;19998;-89
2023/04/10 01:28:39;;;;;;;25.35;12.88;;;;;;;5.86;59.51;100436.72;4502343;31;20123;-89
2023/04/10 01:31:04;;;;;;;29.77;14.40;;;;;;;5.91;59.51;100431.56;4503962;31;20159;-88
2023/04/10 01:33:41;;;;;;;25.70;13.02;;;;;;;5.96;59.51;100429.00;4490826;31;20096;-88
2023/04/10 01:36:07;;;;;;;27.60;12.37;;;;;;;5.99;59.51;100423.81;4502852;31;20122;-90
2023/04/10 01:38:33;;;;;;;26.55;12.80;;;;;;;5.97;59.51;100429.00;4488611;31;20448;-89
2023/04/10 01:40:58;;;;;;;24.92;13.32;;;;;;;6.04;59.52;100424.66;4501556;31;20107;-89
2023/04/10 01:43:24;;;;;;;27.35;14.13;;;;;;;6.07;59.52;100422.06;4488155;31;20096;-88
2023/04/10 01:45:50;;;;;;;28.70;13.02;;;;;;;6.40;59.54;100416.78;4487993;31;20500;-89
2023/04/10 01:48:17;;;;;;;26.58;13.18;;;;;;;6.02;59.52;100421.22;4488443;31;20092;-88
2023/04/10 01:50:44;;;;;;;25.42;13.60;;;;;;;5.98;59.51;100422.09;4475587;31;20080;-89
2023/04/10 01:53:09;;;;;;;28.55;13.68;;;;;;;5.96;59.51;100426.41;4501590;31;20086;-89
2023/04/10 01:55:35;;;;;;;24.98;11.88;;;;;;;5.99;59.52;100428.97;4500467;31;33597;-89
2023/04/10 01:58:01;;;;;;;27.17;14.00;;;;;;;6.00;59.51;100425.53;4488376;31;20127;-88
2023/04/10 02:00:26;;;;;;;26.12;13.95;;;;;;;5.95;59.51;100427.28;4488176;31;20092;-88
2023/04/10 02:02:52;;;;;;;23.87;12.20;;;;;;;5.91;59.52;100417.78;4475186;31;20108;-88
2023/04/10 02:05:17;;;;;;;26.65;13.15;;;;;;;5.96;59.51;100416.94;4488057;31;20105;-88
2023/04/10 02:08:00;;;;;;;26.90;13.35;;;;;;;6.11;59.51;100418.59;4474865;31;20459;-88
2023/04/10 02:10:53;;;;;;;24.70;12.75;;;;;;;5.82;59.50;100416.06;4489269;31;20088;-88
2023/04/10 02:13:20;;;;;;;24.60;12.88;;;;;;;5.84;59.51;100416.91;4475576;31;20118;-89
2023/04/10 02:15:46;;;;;;;27.58;12.73;;;;;;;6.05;59.51;100419.47;4488267;31;20097;-89
2023/04/10 02:18:11;;;;;;;28.12;12.10;;;;;;;5.94;59.51;100417.81;4501387;31;20149;-88
2023/04/10 02:20:36;;;;;;;26.25;12.82;;;;;;;5.80;59.50;100422.97;4487883;31;20115;-88
2023/04/10 02:23:04;;;;;;;24.27;12.55;;;;;;;5.93;59.51;100422.12;4487743;31;20135;-88
2023/04/10 02:25:32;;;;;;;24.83;13.25;;;;;;;5.96;59.51;100424.69;4488368;31;20160;-88
2023/04/10 02:28:04;;;;;;;31.52;13.65;;;;;;;5.85;59.51;100426.38;4501303;31;20465;-88
2023/04/10 02:30:30;;;;;;;26.75;12.80;;;;;;;5.82;59.50;100427.25;4475437;31;20088;-88
2023/04/10 02:32:55;;;;;;;21.23;11.43;;;;;;;5.73;59.49;100424.69;4501255;31;20144;-89
2023/04/10 02:35:21;;;;;;;26.50;12.50;;;;;;;5.83;59.50;100417.78;4474817;31;20123;-88
2023/04/10 02:37:46;;;;;;;22.95;11.90;;;;;;;5.95;59.51;100419.53;4474905;31;20415;-89
2023/04/10 02:40:12;;;;;;;23.90;13.00;;;;;;;5.83;59.51;100410.88;4474943;31;20151;-89
2023/04/10 02:42:37;;;;;;;26.95;12.35;;;;;;;5.84;59.51;100410.03;4474848;31;20096;-89
2023/04/10 02:45:03;;;;;;;23.17;11.18;;;;;;;5.62;59.49;100407.47;4488063;31;20135;-89
2023/04/10 02:47:28;;;;;;;23.73;12.30;;;;;;;5.59;59.49;100408.34;4488464;31;20156;-89
2023/04/10 02:49:54;;;;;;;24.35;11.95;;;;;;;5.50;59.48;100413.53;4488629;31;20155;-88
2023/04/10 02:52:19;;;;;;;23.95;12.32;;;;;;;5.41;59.48;100408.34;4476224;31;20104;-88
2023/04/10 02:54:45;;;;;;;24.52;13.35;;;;;;;5.39;59.48;100402.34;4489656;31;22905;-89
2023/04/10 02:57:10;;;;;;;20.37;11.15;;;;;;;5.30;59.47;100408.38;4488626;31;20144;-88
2023/04/10 02:59:36;;;;;;;22.60;12.30;;;;;;;5.32;59.48;100406.66;4474703;31;20144;-88
2023/04/10 03:02:01;;;;;;;23.23;11.55;;;;;;;5.35;59.47;100409.22;4487892;31;20132;-88
2023/04/10 03:04:27;;;;;;;26.95;13.02;;;;;;;5.41;59.48;100400.63;4487730;31;20127;-89
2023/04/10 03:06:53;;;;;;;26.02;13.25;;;;;;;5.39;59.48;100404.91;4474958;31;20095;-89
2023/04/10 03:09:18;;;;;;;22.08;12.00;;;;;;;5.37;59.47;100401.47;4500848;31;20109;-88
2023/04/10 03:11:44;;;;;;;25.33;12.02;;;;;;;5.33;59.48;100402.34;4487686;31;20158;-89
2023/04/10 03:14:09;;;;;;;24.23;12.30;;;;;;;5.37;59.47;100393.75;4487685;31;20402;-89
2023/04/10 03:16:35;;;;;;;22.23;11.27;;;;;;;5.51;59.49;100397.19;4487850;31;20116;-89
2023/04/10 03:19:00;;;;;;;22.67;11.55;;;;;;;5.22;59.47;100400.63;4487809;31;20118;-89
2023/04/10 03:21:26;;;;;;;21.65;11.52;;;;;;;5.11;59.47;100407.50;4500514;31;20475;-88
2023/04/10 03:23:51;;;;;;;22.67;12.40;;;;;;;5.19;59.47;100397.19;4500926;31;20122;-89
2023/04/10 03:26:17;;;;;;;19.87;11.32;;;;;;;5.22;59.46;100400.63;4500988;31;20437;-88
2023/04/10 03:28:42;;;;;;;27.50;12.82;;;;;;;5.34;59.47;100389.44;4487728;31;20151;-88
2023/04/10 03:31:08;;;;;;;26.33;13.27;;;;;;;5.17;59.47;100394.59;4502208;31;20135;-88
2023/04/10 03:33:34;;;;;;;22.98;12.48;;;;;;;5.15;59.46;100393.75;4487712;31;20116;-89
2023/04/10 03:35:59;;;;;;;26.00;12.88;;;;;;;5.28;59.46;100389.44;4502229;31;20083;-88
2023/04/10 03:38:25;;;;;;;27.77;13.70;;;;;;;5.38;59.47;100393.72;4487237;31;24528;-88
2023/04/10 03:40:50;;;;;;;26.10;13.60;;;;;;;5.30;59.47;100389.44;4487815;31;20147;-89
2023/04/10 03:43:16;;;;;;;27.40;12.43;;;;;;;5.23;59.46;100397.19;4487735;31;20131;-88
2023/04/10 03:45:41;;;;;;;26.05;12.95;;;;;;;5.31;59.47;100398.91;4474598;31;20146;-88
2023/04/10 03:48:06;;;;;;;25.08;12.90;;;;;;;5.19;59.47;100402.34;4500971;31;20127;-88
2023/04/10 03:50:33;;;;;;;26.55;13.57;;;;;;;5.06;59.46;100408.38;4474460;31;20100;-89
2023/04/10 03:52:59;;;;;;;27.95;13.43;;;;;;;5.13;59.47;100408.38;4487535;31;20209;-89
2023/04/10 03:55:25;;;;;;;25.62;13.57;;;;;;;5.08;59.46;100406.66;4487784;31;20108;-88
2023/04/10 03:57:50;;;;;;;28.27;13.95;;;;;;;5.31;59.48;100407.50;4474346;31;20134;-89
2023/04/10 04:00:15;;;;;;;29.15;13.80;;;;;;;5.01;59.46;100410.94;4487499;31;20124;-88
2023/04/10 04:02:41;;;;;;;28.10;14.70;;;;;;;5.13;59.46;100407.50;4501952;31;20107;-88
2023/04/10 04:05:07;;;;;;;29.92;14.55;;;;;;;5.28;59.47;100406.66;4487413;31;20100;-89
2023/04/10 04:07:32;;;;;;;29.17;13.82;;;;;;;5.04;59.46;100410.94;4500998;31;20479;-89
2023/04/10 04:09:57;;;;;;;26.73;13.85;;;;;;;5.00;59.45;100411.81;4500379;31;20080;-88
2023/04/10 04:12:23;;;;;;;28.17;14.00;;;;;;;5.00;59.45;100413.53;4487344;31;20160;-89
2023/04/10 04:14:48;;;;;;;28.25;13.93;;;;;;;5.17;59.47;100411.81;4487348;31;20155;-88
2023/04/10 04:17:14;;;;;;;28.80;14.40;;;;;;;5.26;59.47;100410.97;4473827;31;29839;-88
2023/04/10 04:19:39;;;;;;;30.75;15.18;;;;;;;5.15;59.46;100419.53;4487493;31;20148;-89
2023/04/10 04:22:05;;;;;;;26.73;14.27;;;;;;;5.29;59.47;100410.97;4487138;31;20123;-87
2023/04/10 04:24:30;;;;;;;25.58;13.62;;;;;;;5.12;59.46;100411.81;4487245;31;20100;-89
2023/04/10 04:26:56;;;;;;;28.00;14.35;;;;;;;5.18;59.47;100419.53;4473903;31;20095;-89
2023/04/10 04:29:21;;;;;;;36.70;15.85;;;;;;;5.32;59.48;100416.13;4500288;31;20081;-88
2023/04/10 04:31:46;;;;;;;29.35;13.65;;;;;;;5.33;59.48;100410.94;4486558;31;24981;-89
2023/04/10 04:34:12;;;;;;;29.70;14.43;;;;;;;5.26;59.48;100413.53;4500187;31;20115;-88
2023/04/10 04:36:37;;;;;;;26.17;13.60;;;;;;;5.17;59.47;100416.97;4487240;31;20116;-89
2023/04/10 04:39:03;;;;;;;27.77;14.02;;;;;;;5.27;59.48;100430.75;4486700;31;24021;-88
2023/04/10 04:41:31;;;;;;;29.15;14.63;;;;;;;5.38;59.48;100418.69;4487353;31;20116;-89
2023/04/10 04:43:57;;;;;;;27.33;14.73;;;;;;;5.41;59.48;100418.69;4487350;31;20116;-88
2023/04/10 04:46:22;;;;;;;28.15;13.80;;;;;;;5.37;59.48;100425.56;4486876;31;20385;-88
2023/04/10 04:48:47;;;;;;;26.17;13.30;;;;;;;5.43;59.48;100430.72;4485974;31;33943;-89
2023/04/10 04:51:13;;;;;;;29.48;13.98;;;;;;;5.35;59.48;100431.59;4486836;31;20119;-88
2023/04/10 04:53:38;;;;;;;31.58;13.90;;;;;;;5.47;59.48;100432.47;4472669;31;31912;-88
2023/04/10 04:56:04;;;;;;;30.58;13.57;;;;;;;5.60;59.48;100433.31;4472582;31;20198;-89
2023/04/10 04:58:29;;;;;;;26.27;13.70;;;;;;;5.68;59.49;100425.53;4496724;31;20092;-88
2023/04/10 05:00:55;;;;;;;29.48;14.00;;;;;;;5.69;59.50;100429.87;4496521;31;20429;-88
2023/04/10 05:03:20;;;;;;;28.70;14.20;;;;;;;5.67;59.49;100427.25;4470416;31;20459;-89
2023/04/10 05:05:45;;;;;;;26.37;13.25;;;;;;;5.63;59.50;100435.03;4470129;31;20475;-89
2023/04/10 05:08:11;;;;;;;29.10;14.38;;;;;;;5.78;59.50;100435.88;4483313;31;20334;-89
2023/04/10 05:10:36;;;;;;;28.38;13.90;;;;;;;6.05;59.51;100437.56;4470116;31;20134;-89
2023/04/10 05:13:02;;;;;;;24.77;13.43;;;;;;;5.90;59.50;100439.31;4472826;31;20096;-88
2023/04/10 05:15:27;;;;;;;27.40;14.32;;;;;;;5.89;59.50;100445.31;4500634;31;20144;-89
2023/04/10 05:17:52;;;;;;;29.80;13.25;;;;;;;5.82;59.50;100445.34;4473092;31;20432;-89
2023/04/10 05:20:18;;;;;;;24.65;13.98;;;;;;;6.00;59.51;100443.63;4488299;31;20130;-88
2023/04/10 05:22:43;;;;;;;29.50;14.80;;;;;;;6.12;59.51;100441.00;4475370;31;20104;-88
2023/04/10 05:25:09;;;;;;;26.80;13.73;;;;;;;6.27;59.52;100445.25;4502759;31;20140;-88
2023/04/10 05:27:35;;;;;;;25.23;13.15;;;;;;;6.38;59.54;100444.34;4502896;31;20088;-89
2023/04/10 05:30:00;;;;;;;28.77;14.45;;;;;;;6.41;59.53;100446.09;4488488;31;20138;-88
2023/04/10 05:32:25;;;;;;;27.73;14.68;;;;;;;6.34;59.53;100445.22;4501680;31;20376;-88
2023/04/10 05:34:51;;;;;;;27.67;14.63;;;;;;;6.55;59.54;100440.84;4488172;31;20084;-88
2023/04/10 05:37:16;;;;;;;28.33;14.55;;;;;;;6.64;59.54;100449.44;4487904;31;23672;-89
2023/04/10 05:39:42;;;;;;;28.80;14.45;;;;;;;6.61;59.55;100449.41;4502749;31;20186;-89
2023/04/10 05:42:07;;;;;;;30.30;14.35;;;;;;;6.88;59.57;100448.44;4488302;31;20174;-88
2023/04/10 05:44:33;;;;;;;28.52;14.52;;;;;;;7.04;59.58;100444.00;4488423;31;20161;-89
2023/04/10 05:46:58;;;;;;;32.30;15.48;;;;;;;7.12;59.58;100442.25;4475162;31;20165;-88
2023/04/10 05:49:23;;;;;;;25.95;14.93;;;;;;;7.26;59.58;100445.56;4488335;31;20444;-88
2023/04/10 05:51:50;;;;;;;27.90;14.77;;;;;;;7.33;59.59;100443.78;4487740;31;22986;-89
2023/04/10 05:54:16;;;;;;;27.62;15.27;;;;;;;7.53;59.59;100449.69;4488273;31;20456;-89
2023/04/10 05:56:41;;;;;;;29.95;16.00;;;;;;;7.59;59.60;100444.47;4488250;31;20140;-88
2023/04/10 05:59:07;;;;;;;30.83;16.58;;;;;;;7.83;59.61;100448.56;4487916;31;20116;-88
2023/04/10 06:01:32;;;;;;;25.88;14.00;;;;;;;8.04;59.62;100441.41;4475036;31;20134;-89
2023/04/10 06:03:57;;;;;;;25.35;15.05;;;;;;;8.35;59.64;100437.66;4487812;31;20079;-88
2023/04/10 06:06:24;;;;;;;28.83;16.00;;;;;;;8.43;59.64;100445.34;4500994;31;20080;-89
2023/04/10 06:08:50;;;;;;;28.95;15.18;;;;;;;8.57;59.65;100438.25;4488302;31;20095;-89
2023/04/10 06:11:15;;;;;;;24.83;15.35;;;;;;;8.75;59.67;100440.59;4474848;31;20139;-89
2023/04/10 06:13:41;;;;;;;25.33;13.68;;;;;;;9.00;59.68;100432.47;4474982;31;20107;-88
2023/04/10 06:16:07;;;;;;;26.70;15.18;;;;;;;9.19;59.68;100441.69;4487898;31;20482;-88
2023/04/10 06:18:32;;;;;;;29.58;15.95;;;;;;;9.24;59.69;100437.31;4488066;31;20104;-89
2023/04/10 06:21:00;;;;;;;26.85;15.30;;;;;;;9.36;59.71;100437.09;4487430;31;23213;-89
2023/04/10 06:23:29;;;;;;;26.83;14.90;;;;;;;9.54;59.71;100436.78;4501118;31;20084;-88
2023/04/10 06:25:54;;;;;;;28.33;15.60;;;;;;;9.66;59.72;100434.84;4501108;31;20085;-89
2023/04/10 06:28:20;;;;;;;28.30;15.05;;;;;;;9.95;59.73;100439.56;4487959;31;20096;-88
2023/04/10 06:30:45;;;;;;;30.33;15.63;;;;;;;10.05;59.74;100428.09;4487177;31;20397;-89
2023/04/10 06:33:11;;;;;;;31.27;17.50;;;;;;;10.04;59.74;100426.38;4501065;31;20084;-88
2023/04/10 06:35:36;;;;;;;27.10;15.48;;;;;;;10.14;59.74;100433.09;4474610;31;20092;-88
2023/04/10 06:38:02;;;;;;;36.83;23.48;;;;;;;10.11;59.75;100430.56;4487105;31;25577;-89
2023/04/10 06:40:28;;;;;;;40.08;25.83;;;;;;;10.33;59.76;100424.09;4488014;31;20088;-88
2023/04/10 06:42:54;;;;;;;33.10;22.95;;;;;;;10.59;59.76;100425.28;4488136;31;20157;-88
2023/04/10 06:45:20;;;;;;;30.73;18.67;;;;;;;10.54;59.76;100422.78;4488172;31;20126;-89
2023/04/10 06:47:45;;;;;;;30.42;17.95;;;;;;;10.53;59.76;100417.63;4488067;31;20126;-89
2023/04/10 06:50:10;;;;;;;28.15;16.20;;;;;;;10.65;59.77;100418.22;4474824;31;20527;-89
2023/04/10 06:52:36;;;;;;;27.35;14.87;;;;;;;10.74;59.77;100417.16;4474208;31;28171;-89
2023/04/10 06:55:01;;;;;;;28.80;16.35;;;;;;;10.91;59.78;100416.78;4488053;31;20135;-89
2023/04/10 06:57:27;;;;;;;27.70;15.50;;;;;;;11.08;59.80;100415.50;4500784;31;20522;-88
2023/04/10 06:59:53;;;;;;;26.15;14.65;;;;;;;11.13;59.79;100418.00;4488571;31;20115;-89
2023/04/10 07:02:18;;;;;;;26.35;14.50;;;;;;;11.51;59.81;100408.38;4474959;31;20110;-89
2023/04/10 07:04:44;;;;;;;26.48;13.93;;;;;;;11.59;59.83;100412.53;4487733;31;20107;-89
2023/04/10 07:07:12;;;;;;;21.12;13.80;;;;;;;11.73;59.83;100409.53;4474944;31;20163;-89
2023/04/10 07:09:37;;;;;;;20.35;13.25;;;;;;;11.85;59.84;100408.41;4501173;31;20100;-89
2023/04/10 07:12:03;;;;;;;22.00;12.85;;;;;;;12.06;59.85;100412.16;4474781;31;20091;-89
2023/04/10 07:14:28;;;;;;;20.75;11.73;;;;;;;12.28;59.87;100406.31;4501144;31;20088;-89
2023/04/10 07:16:54;;;;;;;17.77;11.55;;;;;;;12.37;59.87;100409.56;4487407;31;23359;-89
2023/04/10 07:19:19;;;;;;;20.55;12.88;;;;;;;12.48;59.87;100410.09;4474739;31;20096;-89
2023/04/10 07:21:48;;;;;;;20.40;12.18;;;;;;;12.62;59.88;100405.34;4474886;31;20425;-89
2023/04/10 07:24:15;;;;;;;19.30;12.15;;;;;;;12.85;59.89;100399.41;4475533;31;20096;-89
2023/04/10 07:26:40;;;;;;;20.08;11.15;;;;;;;13.08;59.90;100401.31;4475051;31;20108;-89
2023/04/10 07:29:06;;;;;;;20.08;11.95;;;;;;;13.09;59.90;100397.78;4487541;31;20116;-89
2023/04/10 07:31:32;;;;;;;20.08;11.32;;;;;;;13.23;59.91;100405.22;4488029;31;20502;-89
2023/04/10 07:33:57;;;;;;;21.70;12.25;;;;;;;13.33;59.91;100409.25;4501672;31;26729;-89
2023/04/10 07:36:22;;;;;;;20.60;11.82;;;;;;;13.26;59.91;100402.53;4474377;31;20468;-89
2023/04/10 07:38:48;;;;;;;22.55;12.25;;;;;;;13.15;59.91;100410.66;4500889;31;20455;-89
2023/04/10 07:41:13;;;;;;;19.05;9.75;;;;;;;13.19;59.92;100405.31;4499894;31;24781;-89
2023/04/10 07:43:39;;;;;;;21.35;11.82;;;;;;;13.17;59.91;100404.50;4500020;31;20080;-89
2023/04/10 07:46:05;;;;;;;18.55;10.43;;;;;;;13.19;59.92;100397.47;4487788;31;20183;-89
2023/04/10 07:48:30;;;;;;;20.88;11.23;;;;;;;13.25;59.91;100392.94;4500694;31;20126;-89
2023/04/10 07:50:55;;;;;;;19.90;11.35;;;;;;;13.47;59.92;100396.56;4500787;31;20147;-89
2023/04/10 07:53:21;;;;;;;18.55;10.95;;;;;;;13.50;59.93;100388.63;4487438;31;20159;-89
2023/04/10 07:55:48;;;;;;;19.00;11.50;;;;;;;13.58;59.94;100383.13;4502123;31;20111;-89
2023/04/10 07:58:14;;;;;;;18.12;10.68;;;;;;;13.78;59.93;100381.53;4474595;31;20428;-89
2023/04/10 08:00:39;;;;;;;16.48;9.40;;;;;;;14.01;59.95;100372.03;4474511;31;20151;-89
2023/04/10 08:03:05;;;;;;;16.23;8.93;;;;;;;14.01;59.95;100372.03;4500700;31;20136;-89
2023/04/10 08:05:31;;;;;;;13.77;8.77;;;;;;;14.05;59.96;100371.00;4487550;31;20087;-89
2023/04/10 08:07:56;;;;;;;26.87;15.45;;;;;;;14.28;59.97;100371.00;4487714;31;20165;-89
2023/04/10 08:10:22;;;;;;;17.77;10.52;;;;;;;14.51;59.98;100367.53;4499958;31;26568;-89
2023/04/10 08:12:47;;;;;;;14.68;8.93;;;;;;;14.72;60.00;100358.84;4500631;31;20418;-89
2023/04/10 08:15:13;;;;;;;11.60;6.78;;;;;;;14.97;60.01;100371.00;4500610;31;20139;-89
2023/04/10 08:17:38;;;;;;;13.52;8.55;;;;;;;15.08;60.01;100355.66;4487132;31;24343;-90
2023/04/10 08:20:04;;;;;;;13.95;8.55;;;;;;;15.33;60.03;100351.09;4473924;31;26243;-89
2023/04/10 08:22:29;;;;;;;11.95;8.25;;;;;;;15.50;60.04;100355.66;4500601;31;20375;-90
2023/04/10 08:24:55;;;;;;;12.75;7.78;;;;;;;15.57;60.04;100358.84;4474046;31;20101;-90
2023/04/10 08:27:20;;;;;;;13.60;7.90;;;;;;;15.73;60.05;100364.34;4500253;31;20100;-89
2023/04/10 08:29:46;;;;;;;11.10;7.57;;;;;;;15.98;60.06;100351.84;4474237;31;20518;-89
2023/04/10 08:32:11;;;;;;;10.95;7.28;;;;;;;16.08;60.08;100347.88;4500370;31;20376;-90
2023/04/10 08:34:36;;;;;;;14.18;8.63;;;;;;;15.99;60.06;100345.66;4500194;31;20448;-90
2023/04/10 08:37:05;;;;;;;16.35;9.18;;;;;;;16.16;60.07;100345.78;4486588;31;20940;-90
2023/04/10 08:39:34;;;;;;;13.32;8.50;;;;;;;16.40;60.09;100345.56;4473925;31;20118;-87
2023/04/10 08:41:59;;;;;;;12.93;7.93;;;;;;;16.50;60.09;100341.56;4487152;31;20097;-88
2023/04/10 08:44:25;;;;;;;14.50;8.10;;;;;;;16.55;60.09;100339.56;4500140;31;20123;-87
2023/04/10 08:46:50;;;;;;;13.43;8.75;;;;;;;16.71;60.11;100324.81;4486655;31;20163;-88
2023/04/10 08:49:24;;;;;;;13.50;9.60;;;;;;;17.01;60.12;100332.97;4486805;31;20143;-87
2023/04/10 08:51:56;;;;;;;13.90;8.55;;;;;;;16.96;60.12;100335.00;4500086;31;20149;-87
2023/04/10 08:54:27;;;;;;;14.30;9.32;;;;;;;16.93;60.11;100332.53;4488508;31;20201;-88
2023/04/10 08:56:53;;;;;;;14.57;9.40;;;;;;;16.78;60.11;100338.50;4489144;31;20163;-88
2023/04/10 08:59:18;;;;;;;13.90;8.57;;;;;;;16.92;60.11;100336.06;4502356;31;20106;-88
2023/04/10 09:01:45;;;;;;;12.80;7.72;;;;;;;17.08;60.13;100338.81;4502077;31;20376;-88
2023/04/10 09:04:11;;;;;;;12.93;8.15;;;;;;;17.31;60.14;100341.16;4475979;31;20123;-88
2023/04/10 09:06:37;;;;;;;15.38;8.82;;;;;;;17.31;60.14;100341.16;4476045;31;20130;-88
2023/04/10 09:09:04;;;;;;;14.77;8.52;;;;;;;17.49;60.14;100332.31;4475630;31;20095;-88
2023/04/10 09:12:02;;;;;;;14.20;8.73;;;;;;;17.66;60.15;100334.06;4476059;31;20104;-88
2023/04/10 09:14:32;;;;;;;12.48;7.97;;;;;;;17.77;60.16;100323.88;4489262;31;20181;-87
2023/04/10 09:17:10;;;;;;;11.40;7.62;;;;;;;17.93;60.17;100321.28;4475726;31;20460;-87
2023/04/10 09:19:35;;;;;;;13.27;8.32;;;;;;;17.68;60.15;100320.88;4502006;31;20118;-88
2023/04/10 09:22:01;;;;;;;13.62;8.30;;;;;;;17.83;60.15;100317.44;4475855;31;20096;-89
2023/04/10 09:24:26;;;;;;;11.55;7.82;;;;;;;17.79;60.16;100316.75;4488705;31;20196;-87
2023/04/10 09:26:52;;;;;;;12.65;8.25;;;;;;;18.01;60.17;100321.72;4475586;31;20144;-88
2023/04/10 09:29:17;;;;;;;15.05;9.27;;;;;;;18.24;60.19;100317.84;4488437;31;20088;-88
2023/04/10 09:31:43;;;;;;;13.45;7.60;;;;;;;18.34;60.19;100319.03;4489132;31;20118;-87
2023/04/10 09:34:20;;;;;;;13.00;8.52;;;;;;;18.48;60.20;100310.38;4476560;31;20152;-89
2023/04/10 09:36:53;;;;;;;14.20;8.60;;;;;;;18.91;60.21;100307.97;4490880;31;20100;-88
2023/04/10 09:39:19;;;;;;;10.85;7.12;;;;;;;18.94;60.22;100303.38;4489800;31;20165;-88
2023/04/10 09:41:52;;;;;;;9.90;7.03;;;;;;;18.73;60.21;100299.34;4488807;31;20459;-89
2023/04/10 09:44:31;;;;;;;12.18;8.00;;;;;;;18.81;60.22;100302.38;4475588;31;20506;-88
2023/04/10 09:47:17;;;;;;;14.18;8.25;;;;;;;18.91;60.22;100294.78;4490139;31;20116;-88
2023/04/10 09:49:51;;;;;;;13.13;7.72;;;;;;;18.90;60.22;100293.06;4501518;31;20110;-88
2023/04/10 09:52:22;;;;;;;15.05;8.05;;;;;;;18.97;60.22;100289.16;4501625;31;20076;-88
2023/04/10 09:54:47;;;;;;;10.85;6.82;;;;;;;19.03;60.24;100286.16;4489274;31;20104;-87
2023/04/10 09:57:18;;;;;;;13.85;6.87;;;;;;;19.04;60.23;100279.94;4488557;31;20169;-88
2023/04/10 09:59:51;;;;;;;11.95;7.65;;;;;;;19.14;60.23;100278.44;4475465;31;20144;-88
2023/04/10 10:02:17;;;;;;;12.88;7.72;;;;;;;19.40;60.25;100287.50;4489244;31;20208;-88
2023/04/10 10:04:44;;;;;;;10.52;6.65;;;;;;;19.64;60.26;100277.28;4474689;31;20112;-88
2023/04/10 10:07:09;;;;;;;8.85;5.93;;;;;;;19.42;60.25;100272.41;4488353;31;20119;-88
2023/04/10 10:09:35;;;;;;;10.40;6.57;;;;;;;19.25;60.24;100276.03;4488395;31;20136;-88
2023/04/10 10:12:02;;;;;;;8.75;5.90;;;;;;;19.31;60.25;100280.09;4488458;31;20361;-88
2023/04/10 10:14:28;;;;;;;7.87;5.62;;;;;;;19.01;60.23;100275.69;4475297;31;20126;-88
2023/04/10 10:16:55;;;;;;;9.05;6.80;;;;;;;19.10;60.24;100282.22;4475174;31;20168;-88
2023/04/10 10:19:42;;;;;;;9.13;5.68;;;;;;;18.64;60.22;100276.09;4501567;31;20106;-88
2023/04/10 10:22:08;;;;;;;7.68;5.03;;;;;;;18.42;60.20;100279.91;4490375;31;20116;-87
2023/04/10 10:24:34;;;;;;;10.80;7.00;;;;;;;18.51;60.20;100273.31;4488300;31;20383;-88
2023/04/10 10:27:00;;;;;;;10.25;6.43;;;;;;;18.24;60.19;100280.97;4475127;31;20083;-87
2023/04/10 10:29:26;;;;;;;9.60;6.28;;;;;;;18.23;60.20;100273.16;4475329;31;20085;-88
2023/04/10 10:31:51;;;;;;;10.43;6.37;;;;;;;18.12;60.19;100275.50;4474787;31;20088;-88
2023/04/10 10:34:16;;;;;;;10.52;6.80;;;;;;;18.24;60.20;100277.47;4487854;31;20100;-88
2023/04/10 10:36:42;;;;;;;10.35;6.62;;;;;;;18.42;60.21;100269.38;4474392;31;28755;-88
2023/04/10 10:39:41;;;;;;;10.48;6.90;;;;;;;18.43;60.20;100267.59;4474536;31;21044;-88
2023/04/10 10:42:13;;;;;;;8.60;6.37;;;;;;;18.49;60.21;100271.69;4489772;31;20087;-88
2023/04/10 10:45:04;;;;;;;9.23;5.50;;;;;;;18.61;60.21;100266.56;4501259;31;20112;-88
2023/04/10 10:47:29;;;;;;;10.27;6.10;;;;;;;18.65;60.21;100265.47;4488070;31;20501;-88
2023/04/10 10:49:58;;;;;;;9.70;5.72;;;;;;;18.76;60.22;100264.03;4474903;31;20124;-88
2023/04/10 10:52:51;;;;;;;8.43;5.90;;;;;;;18.80;60.23;100268.19;4488202;31;20098;-88
2023/04/10 10:55:35;;;;;;;13.57;6.68;;;;;;;18.76;60.22;100266.66;4476198;31;20122;-88
2023/04/10 10:58:11;;;;;;;8.65;5.53;;;;;;;18.54;60.21;100264.37;4501202;31;20130;-88
2023/04/10 11:00:53;;;;;;;11.98;7.40;;;;;;;18.48;60.21;100270.84;4475576;31;20111;-88
2023/04/10 11:03:19;;;;;;;11.73;7.50;;;;;;;18.25;60.20;100277.41;4501154;31;20088;-88
2023/04/10 11:05:59;;;;;;;9.52;6.30;;;;;;;17.97;60.18;100279.81;4500819;31;20128;-89
2023/04/10 11:08:52;;;;;;;8.40;6.30;;;;;;;18.03;60.18;100268.97;4475063;31;20100;-88
2023/04/10 11:11:18;;;;;;;9.35;6.37;;;;;;;18.10;60.19;100273.81;4501132;31;20504;-88
2023/04/10 11:13:56;;;;;;;9.40;5.82;;;;;;;18.24;60.20;100264.31;4488002;31;20079;-88
2023/04/10 11:16:35;;;;;;;8.52;6.22;;;;;;;18.38;60.21;100267.84;4500754;31;20143;-89
2023/04/10 11:19:04;;;;;;;10.07;5.40;;;;;;;18.60;60.21;100262.22;4502346;31;20092;-87